»·PEaware :: N733WT KSBD-KEMT

N733WT :: KSBD-KEMT

FLIGHT INFORMATION

Flight Status: Arrived
Operator: Privately registered:
United States
More flights under this callsign
Pilot: Jeremy K. (15416)
Aircraft: CESSNA 172 SKYHAWK
(C172)
More flights by this aircraft type
Origin: KSBD San Bernardino Intl
United States
Destination: KEMT El Monte
United States
More flights between these airports :: More routes between these airports
Route:
File this flight plan on PilotEdge
Remarks: CAT-07
Altitude:
(Current/Filed)
6,000ft
Speed:
(Current/Filed)
100kts
Departed: 17-Feb-18 06:32 PM
Arrived: 17-Feb-18 07:31 PM
Distance/Time
Traveled:
40nm/0:59
Distance/Time
To Go:
Arrived

Flight Plot

Page will automatically refresh every two minutes.


Map Options




Map Legend


Flown Route
Filed Route
Departure Airport
Arrival Airport
Navaid (VOR, NDB)
Fix

Horizontal Profiles

Position Reports

Time Latitude Longitude Heading Altitude Ground
Speed
17-Feb-18 17:52 34.105413 -117.242378 149 1161ft 0kts
17-Feb-18 17:53 34.105413 -117.242378 149 1161ft 0kts
17-Feb-18 17:54 34.105413 -117.242378 149 1161ft 0kts
17-Feb-18 17:55 34.105413 -117.242378 149 1161ft 0kts
17-Feb-18 17:56 34.105413 -117.242378 149 1161ft 0kts
17-Feb-18 17:57 34.105413 -117.242378 149 1161ft 0kts
17-Feb-18 17:58 34.105413 -117.242378 149 1161ft 0kts
17-Feb-18 17:59 34.105413 -117.242378 149 1161ft 0kts
17-Feb-18 18:00 34.105413 -117.242378 149 1161ft 0kts
17-Feb-18 18:01 34.105413 -117.242378 149 1161ft 0kts
17-Feb-18 18:02 34.105413 -117.242378 149 1161ft 0kts
17-Feb-18 18:03 34.105413 -117.242378 149 1161ft 0kts
17-Feb-18 18:04 34.105413 -117.242378 149 1161ft 0kts
17-Feb-18 18:05 34.105058 -117.242552 177 1161ft 0kts
17-Feb-18 18:06 34.104946 -117.242538 173 1161ft 5kts
17-Feb-18 18:07 34.104832 -117.242520 198 1161ft 0kts
17-Feb-18 18:08 34.104832 -117.242520 198 1161ft 0kts
17-Feb-18 18:09 34.104785 -117.242518 164 1161ft 0kts
17-Feb-18 18:10 34.104785 -117.242518 163 1161ft 0kts
17-Feb-18 18:11 34.104785 -117.242518 163 1161ft 0kts
17-Feb-18 18:12 34.104785 -117.242518 163 1161ft 0kts
17-Feb-18 18:13 34.104405 -117.242241 144 1161ft 10kts
17-Feb-18 18:14 34.104209 -117.242078 150 1161ft 0kts
17-Feb-18 18:15 34.104209 -117.242078 150 1161ft 0kts
17-Feb-18 18:16 34.104209 -117.242078 150 1161ft 0kts
17-Feb-18 18:17 34.104209 -117.242078 150 1161ft 0kts
17-Feb-18 18:18 34.104164 -117.242048 151 1161ft 4kts
17-Feb-18 18:19 34.103156 -117.241164 124 1161ft 17kts
17-Feb-18 18:20 34.102550 -117.238887 107 1161ft 21kts
17-Feb-18 18:21 34.101899 -117.236176 104 1161ft 23kts
17-Feb-18 18:22 34.101219 -117.233285 107 1161ft 23kts
17-Feb-18 18:23 34.100565 -117.230825 103 1161ft 18kts
17-Feb-18 18:24 34.100085 -117.228767 106 1161ft 15kts
17-Feb-18 18:25 34.099796 -117.226971 105 1161ft 14kts
17-Feb-18 18:26 34.100009 -117.225164 67 1161ft 16kts
17-Feb-18 18:27 34.100598 -117.223245 71 1161ft 17kts
17-Feb-18 18:28 34.101177 -117.221240 70 1161ft 17kts
17-Feb-18 18:29 34.100929 -117.219767 164 1161ft 9kts
17-Feb-18 18:30 34.100813 -117.219725 163 1161ft 0kts
17-Feb-18 18:31 34.100813 -117.219725 163 1161ft 0kts
17-Feb-18 18:32 34.100812 -117.219725 165 1161ft 0kts
17-Feb-18 18:33 34.100726 -117.219688 119 1161ft 0kts
17-Feb-18 18:34 34.100726 -117.219688 119 1161ft 0kts
17-Feb-18 18:35 34.100726 -117.219688 119 1161ft 0kts
17-Feb-18 18:36 34.100726 -117.219688 119 1161ft 0kts
17-Feb-18 18:37 34.100726 -117.219688 119 1161ft 0kts
17-Feb-18 18:38 34.099831 -117.219491 208 1161ft 21kts
17-Feb-18 18:39 34.097737 -117.226354 251 1173ft 90kts
17-Feb-18 18:40 34.094232 -117.238642 249 1683ft 89kts
17-Feb-18 18:41 34.090168 -117.251270 257 2097ft 92kts
17-Feb-18 18:42 34.089737 -117.263879 273 2584ft 81kts
17-Feb-18 18:43 34.089083 -117.275830 283 2974ft 83kts
17-Feb-18 18:44 34.091191 -117.287238 286 3390ft 80kts
17-Feb-18 18:45 34.092835 -117.298561 281 3764ft 82kts
17-Feb-18 18:46 34.093244 -117.307992 257 3859ft 102kts
17-Feb-18 18:47 34.090557 -117.318806 251 3914ft 111kts
17-Feb-18 18:48 34.086990 -117.332450 251 3942ft 118kts
17-Feb-18 18:49 34.083246 -117.346742 251 3942ft 121kts
17-Feb-18 18:50 34.080445 -117.357411 251 3942ft 122kts
17-Feb-18 18:51 34.079616 -117.360565 251 3942ft 123kts
17-Feb-18 18:52 34.076342 -117.373041 251 4108ft 113kts
17-Feb-18 18:53 34.073133 -117.385301 251 4381ft 104kts
17-Feb-18 18:54 34.070348 -117.396018 250 4677ft 96kts
17-Feb-18 18:55 34.067901 -117.405492 250 4956ft 92kts
17-Feb-18 18:56 34.065537 -117.414710 250 5237ft 89kts
17-Feb-18 18:57 34.063226 -117.423685 250 5316ft 104kts
17-Feb-18 18:58 34.061919 -117.428748 251 5359ft 107kts
17-Feb-18 18:59 34.059199 -117.439329 250 5566ft 104kts
17-Feb-18 19:00 34.056556 -117.449659 250 5782ft 102kts
17-Feb-18 19:01 34.053982 -117.459755 250 5990ft 101kts
17-Feb-18 19:02 34.050971 -117.471490 251 6005ft 116kts
17-Feb-18 19:03 34.047348 -117.485535 251 6003ft 122kts
17-Feb-18 19:04 34.043596 -117.500032 251 6002ft 125kts
17-Feb-18 19:05 34.042593 -117.513781 272 5999ft 127kts
17-Feb-18 19:06 34.041076 -117.526520 259 6002ft 126kts
17-Feb-18 19:07 34.039720 -117.539148 260 6002ft 127kts
17-Feb-18 19:08 34.038847 -117.552233 265 6002ft 127kts
17-Feb-18 19:09 34.038416 -117.566968 265 6002ft 127kts
17-Feb-18 19:10 34.038002 -117.581517 265 6002ft 128kts
17-Feb-18 19:11 34.040082 -117.594943 297 5997ft 131kts
17-Feb-18 19:12 34.048394 -117.609639 302 6002ft 131kts
17-Feb-18 19:13 34.053737 -117.621499 288 6005ft 129kts
17-Feb-18 19:14 34.058738 -117.649335 275 6008ft 128kts
17-Feb-18 19:15 34.060916 -117.673743 272 6012ft 128kts
17-Feb-18 19:16 34.062829 -117.700104 272 6016ft 128kts
17-Feb-18 19:17 34.065484 -117.738289 272 5631ft 137kts
17-Feb-18 19:18 34.067481 -117.766860 272 5259ft 139kts
17-Feb-18 19:19 34.070110 -117.804728 272 4720ft 139kts
17-Feb-18 19:20 34.072728 -117.831555 279 4424ft 138kts
17-Feb-18 19:21 34.075278 -117.844830 281 4275ft 137kts
17-Feb-18 19:22 34.076601 -117.851310 281 4202ft 137kts
17-Feb-18 19:23 34.080542 -117.869976 287 3984ft 137kts
17-Feb-18 19:24 34.084596 -117.888755 281 3768ft 136kts
17-Feb-18 19:25 34.088242 -117.907681 282 3549ft 128kts
17-Feb-18 19:26 34.089356 -117.924569 257 3420ft 117kts
17-Feb-18 19:27 34.086246 -117.940753 260 3115ft 122kts
17-Feb-18 19:28 34.082146 -117.956184 259 2855ft 120kts
17-Feb-18 19:29 34.083772 -117.971107 293 2423ft 110kts
17-Feb-18 19:30 34.089425 -117.984504 300 1971ft 93kts
17-Feb-18 19:31 34.094023 -117.994161 300 1798ft 75kts
17-Feb-18 19:32 34.097949 -118.002707 297 1558ft 72kts
17-Feb-18 19:33 34.102067 -118.011122 302 1367ft 68kts
17-Feb-18 19:34 34.104872 -118.019456 257 1125ft 71kts
17-Feb-18 19:35 34.100408 -118.026038 218 747ft 77kts
17-Feb-18 19:36 34.095367 -118.029356 207 506ft 62kts
17-Feb-18 19:37 34.090650 -118.032157 204 325ft 60kts
17-Feb-18 19:38 34.087095 -118.034251 204 299ft 34kts
17-Feb-18 19:39 34.085538 -118.034763 147 299ft 4kts
17-Feb-18 19:40 34.085074 -118.034513 164 299ft 19kts
17-Feb-18 19:41 34.084588 -118.033934 11 299ft 0kts

Navigation Log

Ident Type
1. KSBD Airport
2. KEMT Airport